createdAt,value
2023-04-21T00:01:44.650Z,27.57
2023-04-21T00:04:15.148Z,25.07
2023-04-21T00:06:45.315Z,24.73
2023-04-21T00:09:13.169Z,25.07
2023-04-21T00:11:41.206Z,27.40
2023-04-21T00:14:09.028Z,26.60
2023-04-21T00:16:36.900Z,26.50
2023-04-21T00:19:06.928Z,32.83
2023-04-21T00:21:34.897Z,27.77
2023-04-21T00:24:04.287Z,26.13
2023-04-21T00:26:32.035Z,26.83
2023-04-21T00:29:00.306Z,27.30
2023-04-21T00:31:28.245Z,27.70
2023-04-21T00:33:56.500Z,28.23
2023-04-21T00:36:25.009Z,27.23
2023-04-21T00:38:52.812Z,26.43
2023-04-21T00:41:21.900Z,28.53
2023-04-21T00:44:01.850Z,27.83
2023-04-21T00:46:29.781Z,28.27
2023-04-21T00:48:57.795Z,28.97
2023-04-21T00:51:25.789Z,28.73
2023-04-21T00:53:53.689Z,27.90
2023-04-21T00:56:23.100Z,26.93
2023-04-21T00:58:51.164Z,29.13
2023-04-21T01:01:19.192Z,30.47
2023-04-21T01:03:47.727Z,31.50
2023-04-21T01:06:15.682Z,28.60
2023-04-21T01:08:43.589Z,27.17
2023-04-21T01:11:12.220Z,30.03
2023-04-21T01:13:42.041Z,29.80
2023-04-21T01:16:09.940Z,30.00
2023-04-21T01:18:37.824Z,30.73
2023-04-21T01:21:07.543Z,28.67
2023-04-21T01:23:36.680Z,28.07
2023-04-21T01:26:04.906Z,28.50
2023-04-21T01:28:32.904Z,30.30
2023-04-21T01:31:00.899Z,28.73
2023-04-21T01:33:29.003Z,28.30
2023-04-21T01:35:57.224Z,31.03
2023-04-21T01:38:25.421Z,27.33
2023-04-21T01:40:55.860Z,27.33
2023-04-21T01:43:25.358Z,27.60
2023-04-21T01:45:53.982Z,27.77
2023-04-21T01:48:21.858Z,24.37
2023-04-21T01:50:49.839Z,27.17
2023-04-21T01:53:17.652Z,25.63
2023-04-21T01:55:45.420Z,26.40
2023-04-21T01:58:14.780Z,26.40
2023-04-21T02:00:42.522Z,24.93
2023-04-21T02:03:10.447Z,28.00
2023-04-21T02:05:38.441Z,28.43
2023-04-21T02:08:07.577Z,26.77
2023-04-21T02:10:35.295Z,25.40
2023-04-21T02:13:03.149Z,26.60
2023-04-21T02:15:32.306Z,26.67
2023-04-21T02:18:00.473Z,27.13
2023-04-21T02:20:28.383Z,24.70
2023-04-21T02:22:56.167Z,24.97
2023-04-21T02:25:24.193Z,25.93
2023-04-21T02:27:51.942Z,26.40
2023-04-21T02:30:20.597Z,27.67
2023-04-21T02:32:49.924Z,23.40
2023-04-21T02:35:17.838Z,27.10
2023-04-21T02:37:45.628Z,24.70
2023-04-21T02:40:14.017Z,24.93
2023-04-21T02:42:41.833Z,24.10
2023-04-21T02:45:16.277Z,26.53
2023-04-21T02:47:44.028Z,23.10
2023-04-21T02:50:14.637Z,25.23
2023-04-21T02:52:42.363Z,25.17
2023-04-21T02:55:10.377Z,27.07
2023-04-21T02:57:38.112Z,24.03
2023-04-21T03:00:08.081Z,21.53
2023-04-21T03:02:36.093Z,25.37
2023-04-21T03:05:04.406Z,26.23
2023-04-21T03:07:33.502Z,23.03
2023-04-21T03:10:01.311Z,23.80
2023-04-21T03:12:29.093Z,23.77
2023-04-21T03:14:56.899Z,23.37
2023-04-21T03:17:24.690Z,25.07
2023-04-21T03:19:52.479Z,21.50
2023-04-21T03:22:20.309Z,26.30
2023-04-21T03:24:49.466Z,21.03
2023-04-21T03:27:17.295Z,25.07
2023-04-21T03:29:45.073Z,23.20
2023-04-21T03:32:13.008Z,22.20
2023-04-21T03:34:41.068Z,20.63
2023-04-21T03:37:08.812Z,25.00
2023-04-21T03:39:36.594Z,24.43
2023-04-21T03:42:05.888Z,25.80
2023-04-21T03:44:33.773Z,25.93
2023-04-21T03:47:03.373Z,23.30
2023-04-21T03:49:31.722Z,24.77
2023-04-21T03:51:59.472Z,25.90
2023-04-21T03:54:27.302Z,27.50
2023-04-21T03:56:55.517Z,22.20
2023-04-21T03:59:24.682Z,24.93
2023-04-21T04:01:52.578Z,24.53
2023-04-21T04:04:20.675Z,27.40
2023-04-21T04:06:48.626Z,28.03
2023-04-21T04:09:16.450Z,24.10
2023-04-21T04:11:44.230Z,27.53
2023-04-21T04:14:12.000Z,26.33
2023-04-21T04:16:41.504Z,25.70
2023-04-21T04:19:09.716Z,27.40
2023-04-21T04:21:37.521Z,26.73
2023-04-21T04:24:06.344Z,25.77
2023-04-21T04:26:35.536Z,24.03
2023-04-21T04:29:04.066Z,28.37
2023-04-21T04:31:32.691Z,25.83
2023-04-21T04:34:02.009Z,26.27
2023-04-21T04:36:30.847Z,29.37
2023-04-21T04:38:59.614Z,27.13
2023-04-21T04:41:27.485Z,29.80
2023-04-21T04:43:58.347Z,30.60
2023-04-21T04:46:28.469Z,26.67
2023-04-21T04:48:56.617Z,26.37
2023-04-21T04:51:25.774Z,25.63
2023-04-21T04:53:53.563Z,27.97
2023-04-21T04:56:22.073Z,27.43
2023-04-21T04:58:49.892Z,28.37
2023-04-21T05:01:18.393Z,26.57
2023-04-21T05:03:47.530Z,25.00
2023-04-21T05:06:15.418Z,24.23
2023-04-21T05:08:44.570Z,22.53
2023-04-21T05:11:12.516Z,23.53
2023-04-21T05:13:40.670Z,24.77
2023-04-21T05:16:10.211Z,26.47
2023-04-21T05:18:38.133Z,28.77
2023-04-21T05:21:06.031Z,24.43
2023-04-21T05:23:34.103Z,26.23
2023-04-21T05:26:04.684Z,26.47
2023-04-21T05:28:32.907Z,29.57
2023-04-21T05:31:00.723Z,24.17
2023-04-21T05:33:31.690Z,24.37
2023-04-21T05:35:59.555Z,25.63
2023-04-21T05:38:27.554Z,23.70
2023-04-21T05:40:56.078Z,27.23
2023-04-21T05:43:25.214Z,22.43
2023-04-21T05:45:53.228Z,24.23
2023-04-21T05:48:21.098Z,22.33
2023-04-21T05:50:48.939Z,24.83
2023-04-21T05:53:16.863Z,24.47
2023-04-21T05:55:44.649Z,23.97
2023-04-21T05:58:12.378Z,25.47
2023-04-21T06:00:41.531Z,25.17
2023-04-21T06:03:09.403Z,24.57
2023-04-21T06:05:37.484Z,24.70
2023-04-21T06:08:05.617Z,24.93
2023-04-21T06:10:33.488Z,24.67
2023-04-21T06:13:01.285Z,26.67
2023-04-21T06:15:29.103Z,26.90
2023-04-21T06:17:58.516Z,27.50
2023-04-21T06:20:27.167Z,27.10
2023-04-21T06:22:54.981Z,27.30
2023-04-21T06:25:23.148Z,25.83
2023-04-21T06:27:51.015Z,28.80
2023-04-21T06:30:18.849Z,27.63
2023-04-21T06:32:48.505Z,28.73
2023-04-21T06:35:18.889Z,30.43
2023-04-21T06:37:46.843Z,32.33
2023-04-21T06:40:16.191Z,30.80
2023-04-21T06:42:44.087Z,31.30
2023-04-21T06:45:12.564Z,27.57
2023-04-21T06:47:40.372Z,53.93
2023-04-21T06:50:09.304Z,36.50
2023-04-21T06:52:38.464Z,31.07
2023-04-21T06:55:07.588Z,31.43
2023-04-21T06:57:38.626Z,27.67
2023-04-21T07:00:07.679Z,28.83
2023-04-21T07:02:35.657Z,30.43
2023-04-21T07:05:03.555Z,29.47
2023-04-21T07:07:31.335Z,30.33
2023-04-21T07:10:00.593Z,32.50
2023-04-21T07:12:28.468Z,31.07
2023-04-21T07:14:56.379Z,30.17
2023-04-21T07:17:24.244Z,29.67
2023-04-21T07:19:52.070Z,32.07
2023-04-21T07:22:19.903Z,31.37
2023-04-21T07:24:49.328Z,31.33
2023-04-21T07:27:19.623Z,28.20
2023-04-21T07:29:47.387Z,31.43
2023-04-21T07:32:15.193Z,27.17
2023-04-21T07:34:43.722Z,29.17
2023-04-21T07:37:11.506Z,29.33
2023-04-21T07:39:39.295Z,30.37
2023-04-21T07:42:08.266Z,32.27
2023-04-21T07:44:37.802Z,31.60
2023-04-21T07:47:05.855Z,27.63
2023-04-21T07:49:33.707Z,30.43
2023-04-21T07:52:01.614Z,25.97
2023-04-21T07:54:31.599Z,31.40
2023-04-21T07:56:59.887Z,31.87
2023-04-21T07:59:27.617Z,30.13
2023-04-21T08:01:56.807Z,32.37
2023-04-21T08:04:25.041Z,31.33
2023-04-21T08:06:53.227Z,31.37
2023-04-21T08:09:21.354Z,32.93
2023-04-21T08:11:49.341Z,29.23
2023-04-21T08:14:17.451Z,28.87
2023-04-21T08:16:45.756Z,29.90
2023-04-21T08:19:15.060Z,28.43
2023-04-21T08:21:43.048Z,83.93
2023-04-21T08:24:10.882Z,33.00
2023-04-21T08:26:38.776Z,28.37
2023-04-21T08:29:07.519Z,32.17
2023-04-21T08:31:35.528Z,29.40
2023-04-21T08:34:03.410Z,29.73
2023-04-21T08:36:32.839Z,28.30
2023-04-21T08:39:01.016Z,25.20
2023-04-21T08:41:29.382Z,24.93
2023-04-21T08:43:57.132Z,23.00
2023-04-21T08:46:26.417Z,22.40
2023-04-21T08:48:59.563Z,20.70
2023-04-21T08:51:30.279Z,17.10
2023-04-21T08:53:59.549Z,20.73
2023-04-21T08:56:27.552Z,20.70
2023-04-21T08:58:55.450Z,21.83
2023-04-21T09:01:23.319Z,19.33
2023-04-21T09:03:51.252Z,22.37
2023-04-21T09:06:19.722Z,19.17
2023-04-21T09:08:55.850Z,19.33
2023-04-21T09:11:25.732Z,20.33
2023-04-21T09:13:58.147Z,17.37
2023-04-21T09:16:26.483Z,20.90
2023-04-21T09:18:54.297Z,20.53
2023-04-21T09:21:23.308Z,19.73
2023-04-21T09:23:52.063Z,19.10
2023-04-21T09:26:22.837Z,22.10
2023-04-21T09:28:53.867Z,20.73
2023-04-21T09:31:24.758Z,18.70
2023-04-21T09:33:58.842Z,19.00
2023-04-21T09:36:30.988Z,17.40
2023-04-21T09:41:32.297Z,21.20
2023-04-21T09:44:04.085Z,20.03
2023-04-21T09:46:35.315Z,19.47
2023-04-21T09:49:03.534Z,21.70
2023-04-21T09:52:05.294Z,27.03
2023-04-21T09:56:56.030Z,20.53
2023-04-21T09:59:27.734Z,20.40
2023-04-21T10:01:57.009Z,22.17
2023-04-21T10:04:26.724Z,22.63
2023-04-21T10:06:55.877Z,19.43
2023-04-21T10:09:25.446Z,22.10
2023-04-21T10:11:53.628Z,20.67
2023-04-21T10:14:21.908Z,20.03
2023-04-21T10:16:58.931Z,18.30
2023-04-21T10:19:27.947Z,17.57
2023-04-21T10:21:57.194Z,18.93
2023-04-21T10:24:25.097Z,22.53
2023-04-21T10:26:55.104Z,26.40
2023-04-21T10:29:40.178Z,19.00
2023-04-21T10:32:13.402Z,20.83
2023-04-21T10:34:41.506Z,20.27
2023-04-21T10:37:19.805Z,20.07
2023-04-21T10:39:57.392Z,21.67
2023-04-21T10:42:36.912Z,18.70
2023-04-21T10:45:10.331Z,22.83
2023-04-21T10:47:42.861Z,25.97
2023-04-21T10:50:25.522Z,21.90
2023-04-21T10:52:56.329Z,19.10
2023-04-21T10:55:27.419Z,21.90
2023-04-21T10:57:55.254Z,22.60
2023-04-21T11:00:24.484Z,19.43
2023-04-21T11:02:58.137Z,19.43
2023-04-21T11:05:29.554Z,18.23
2023-04-21T11:08:05.190Z,20.97
2023-04-21T11:10:43.428Z,23.30
2023-04-21T11:13:11.495Z,18.77
2023-04-21T11:15:39.444Z,18.60
2023-04-21T11:18:08.841Z,17.23
2023-04-21T11:20:41.515Z,19.33
2023-04-21T11:23:09.368Z,19.17
2023-04-21T11:25:37.188Z,19.27
2023-04-21T11:28:06.345Z,18.83
2023-04-21T11:30:34.799Z,17.30
2023-04-21T11:33:03.146Z,15.50
2023-04-21T11:35:32.598Z,20.10
2023-04-21T11:38:00.407Z,19.23
2023-04-21T11:40:28.184Z,20.20
2023-04-21T11:42:56.017Z,18.77
2023-04-21T11:45:23.918Z,19.03
2023-04-21T11:47:51.719Z,15.43
2023-04-21T11:50:33.269Z,15.80
2023-04-21T11:53:03.526Z,20.93
2023-04-21T11:55:31.327Z,17.33
2023-04-21T11:57:59.172Z,19.17
2023-04-21T12:00:31.172Z,18.73
2023-04-21T12:03:00.452Z,18.37
2023-04-21T12:05:37.591Z,20.47
2023-04-21T12:08:06.394Z,19.80
2023-04-21T12:10:34.300Z,18.83
2023-04-21T12:13:02.112Z,17.57
2023-04-21T12:15:31.492Z,18.07
2023-04-21T12:17:59.384Z,18.67
2023-04-21T12:20:30.605Z,15.57
2023-04-21T12:23:01.184Z,17.93
2023-04-21T12:25:28.998Z,15.67
2023-04-21T12:27:59.886Z,17.97
2023-04-21T12:30:27.690Z,16.60
2023-04-21T12:32:56.050Z,19.20
2023-04-21T12:35:24.026Z,19.10
2023-04-21T12:37:51.789Z,18.60
2023-04-21T12:40:21.064Z,15.47
2023-04-21T12:42:49.426Z,15.00
2023-04-21T12:45:17.248Z,13.43
2023-04-21T12:47:46.873Z,19.73
2023-04-21T12:50:14.958Z,14.60
2023-04-21T12:52:42.768Z,17.10
2023-04-21T12:55:10.949Z,18.60
2023-04-21T12:57:40.167Z,18.57
2023-04-21T13:00:12.245Z,17.20
2023-04-21T13:02:40.300Z,16.50
2023-04-21T13:05:10.052Z,14.27
2023-04-21T13:07:37.877Z,15.53
2023-04-21T13:10:06.983Z,15.37
2023-04-21T13:12:34.945Z,13.97
2023-04-21T13:15:04.442Z,15.27
2023-04-21T13:17:32.713Z,13.87
2023-04-21T13:20:00.666Z,13.10
2023-04-21T13:22:28.532Z,11.07
2023-04-21T13:24:56.274Z,12.53
2023-04-21T13:27:24.120Z,14.03
2023-04-21T13:29:52.391Z,16.83
2023-04-21T13:32:21.698Z,16.90
2023-04-21T13:34:49.710Z,14.47
2023-04-21T13:37:17.484Z,12.67
2023-04-21T13:39:45.301Z,14.83
2023-04-21T13:42:13.191Z,14.60
2023-04-21T13:44:41.049Z,14.27
2023-04-21T13:47:09.274Z,14.33
2023-04-21T13:49:39.564Z,13.40
2023-04-21T13:52:07.353Z,14.27
2023-04-21T13:54:35.175Z,14.23
2023-04-21T13:57:03.066Z,15.83
2023-04-21T13:59:31.067Z,14.23
2023-04-21T14:01:59.001Z,12.57
2023-04-21T14:04:27.117Z,12.10
2023-04-21T14:06:56.809Z,14.00
2023-04-21T14:09:24.655Z,14.03
2023-04-21T14:11:52.496Z,13.80
2023-04-21T14:14:31.313Z,17.10
2023-04-21T14:17:06.204Z,13.20
2023-04-21T14:19:34.217Z,12.73
2023-04-21T14:22:03.939Z,11.80
2023-04-21T14:24:32.510Z,14.53
2023-04-21T14:27:00.387Z,13.80
2023-04-21T14:29:28.347Z,17.57
2023-04-21T14:31:57.910Z,12.70
2023-04-21T14:34:26.342Z,14.20
2023-04-21T14:36:54.514Z,13.53
2023-04-21T14:39:23.840Z,11.37
2023-04-21T14:41:51.574Z,12.40
2023-04-21T14:44:19.929Z,11.13
2023-04-21T14:46:56.887Z,12.40
2023-04-21T14:49:29.307Z,11.70
2023-04-21T14:51:57.083Z,12.23
2023-04-21T14:54:26.351Z,12.10
2023-04-21T14:57:03.395Z,13.33
2023-04-21T14:59:39.330Z,11.73
2023-04-21T15:02:07.262Z,11.77
2023-04-21T15:04:35.206Z,11.13
2023-04-21T15:07:03.780Z,12.60
2023-04-21T15:09:33.376Z,51.07
2023-04-21T15:12:01.425Z,11.17
2023-04-21T15:14:29.270Z,13.20
2023-04-21T15:16:57.083Z,11.70
2023-04-21T15:19:31.866Z,10.83
2023-04-21T15:21:59.807Z,12.93
2023-04-21T15:24:27.656Z,10.57
2023-04-21T15:26:57.214Z,10.70
2023-04-21T15:29:25.061Z,11.40
2023-04-21T15:31:52.937Z,12.10
2023-04-21T15:34:20.762Z,11.37
2023-04-21T15:36:48.688Z,11.83
2023-04-21T15:39:16.488Z,11.00
2023-04-21T15:41:44.314Z,13.23
2023-04-21T15:44:13.677Z,11.27
2023-04-21T15:46:41.636Z,10.13
2023-04-21T15:49:09.529Z,9.63
2023-04-21T15:51:37.429Z,10.10
2023-04-21T15:54:05.363Z,9.90
2023-04-21T15:56:33.212Z,10.70
2023-04-21T15:59:01.067Z,9.33
2023-04-21T16:01:30.302Z,8.47
2023-04-21T16:03:58.309Z,7.50
2023-04-21T16:06:26.597Z,8.30
2023-04-21T16:08:54.554Z,8.87
2023-04-21T16:11:24.883Z,8.30
2023-04-21T16:13:53.023Z,10.47
2023-04-21T16:16:20.955Z,14.63
2023-04-21T16:18:50.175Z,9.10
2023-04-21T16:21:18.047Z,9.73
2023-04-21T16:23:45.999Z,8.00
2023-04-21T16:26:13.767Z,8.67
2023-04-21T16:28:41.771Z,8.43
2023-04-21T16:31:09.698Z,8.93
2023-04-21T16:33:37.512Z,9.27
2023-04-21T16:36:07.169Z,8.47
2023-04-21T16:38:35.028Z,7.53
2023-04-21T16:41:02.911Z,10.27
2023-04-21T16:43:30.764Z,7.50
2023-04-21T16:45:58.850Z,7.33
2023-04-21T16:48:27.014Z,8.30
2023-04-21T16:50:54.929Z,7.50
2023-04-21T16:53:25.516Z,8.23
2023-04-21T16:55:53.981Z,7.80
2023-04-21T16:58:22.191Z,6.87
2023-04-21T17:00:50.084Z,7.37
2023-04-21T17:03:18.196Z,7.50
2023-04-21T17:05:46.182Z,6.13
2023-04-21T17:08:13.915Z,7.27
2023-04-21T17:10:43.093Z,7.70
2023-04-21T17:13:10.885Z,7.40
2023-04-21T17:15:38.718Z,6.67
2023-04-21T17:18:06.788Z,8.67
2023-04-21T17:20:35.151Z,7.70
2023-04-21T17:23:02.924Z,7.20
2023-04-21T17:25:30.875Z,8.03
2023-04-21T17:28:01.120Z,6.83
2023-04-21T17:30:28.956Z,8.53
2023-04-21T17:33:08.249Z,6.93
2023-04-21T17:35:55.800Z,6.60
2023-04-21T17:38:29.837Z,6.87
2023-04-21T17:40:57.687Z,7.50
2023-04-21T17:43:26.836Z,5.87
2023-04-21T17:45:54.780Z,4.00
2023-04-21T17:48:22.536Z,4.87
2023-04-21T17:50:50.536Z,4.63
2023-04-21T17:53:18.940Z,2.67
2023-04-21T17:55:46.756Z,2.63
2023-04-21T17:58:14.705Z,4.13
2023-04-21T18:00:44.050Z,16.17
2023-04-21T18:03:11.982Z,28.80
2023-04-21T18:05:40.784Z,4.80
2023-04-21T18:08:08.740Z,3.97
2023-04-21T18:10:37.558Z,3.53
2023-04-21T18:13:06.145Z,4.70
2023-04-21T18:15:34.053Z,3.77
2023-04-21T18:18:03.237Z,2.20
2023-04-21T18:20:31.303Z,3.53
2023-04-21T18:22:59.087Z,2.40
2023-04-21T18:25:40.826Z,3.47
2023-04-21T18:28:11.134Z,2.17
2023-04-21T18:30:39.238Z,2.50
2023-04-21T18:33:08.525Z,2.33
2023-04-21T18:35:36.728Z,2.90
2023-04-21T18:38:05.879Z,3.47
2023-04-21T18:40:33.818Z,2.80
2023-04-21T18:43:01.609Z,4.23
2023-04-21T18:45:29.410Z,2.43
2023-04-21T18:47:57.200Z,3.10
2023-04-21T18:50:27.494Z,2.60
2023-04-21T18:52:55.802Z,2.40
2023-04-21T18:55:23.609Z,2.10
2023-04-21T18:57:51.360Z,2.10
2023-04-21T19:00:19.177Z,2.00
2023-04-21T19:02:48.842Z,2.20
2023-04-21T19:05:17.024Z,2.73
2023-04-21T19:07:46.188Z,3.70
2023-04-21T19:10:13.993Z,3.13
2023-04-21T19:12:41.781Z,2.37
2023-04-21T19:15:10.576Z,2.10
2023-04-21T19:17:39.650Z,2.33
2023-04-21T19:20:08.680Z,2.00
2023-04-21T19:22:36.992Z,2.60
2023-04-21T19:25:08.082Z,2.23
2023-04-21T19:27:35.917Z,3.17
2023-04-21T19:30:03.780Z,2.20
2023-04-21T19:32:31.746Z,4.83
2023-04-21T19:34:59.759Z,3.83
2023-04-21T19:37:28.088Z,3.60
2023-04-21T19:39:56.036Z,3.37
2023-04-21T19:42:25.158Z,3.23
2023-04-21T19:44:53.226Z,2.63
2023-04-21T19:47:21.204Z,3.07
2023-04-21T19:49:49.068Z,2.10
2023-04-21T19:52:16.848Z,1.80
2023-04-21T19:54:44.657Z,2.80
2023-04-21T19:57:12.556Z,2.40
2023-04-21T19:59:41.768Z,1.93
2023-04-21T20:02:09.660Z,2.10
2023-04-21T20:04:37.710Z,1.83
2023-04-21T20:07:05.777Z,1.87
2023-04-21T20:09:33.578Z,5.00
2023-04-21T20:12:01.596Z,1.93
2023-04-21T20:14:29.350Z,1.90
2023-04-21T20:16:58.729Z,2.10
2023-04-21T20:19:27.153Z,4.17
2023-04-21T20:21:55.062Z,1.60
2023-04-21T20:24:23.119Z,1.70
2023-04-21T20:26:51.214Z,2.00
2023-04-21T20:29:19.082Z,3.00
2023-04-21T20:31:47.329Z,1.90
2023-04-21T20:34:16.836Z,1.63
2023-04-21T20:36:45.011Z,2.70
2023-04-21T20:39:14.430Z,1.60
2023-04-21T20:41:43.688Z,1.60
2023-04-21T20:44:12.757Z,3.23
2023-04-21T20:46:40.962Z,1.80
2023-04-21T20:49:08.953Z,2.47
2023-04-21T20:51:41.766Z,1.67
2023-04-21T20:54:09.868Z,2.20
2023-04-21T20:56:37.677Z,2.03
2023-04-21T20:59:05.866Z,2.00
2023-04-21T21:01:38.810Z,2.30
2023-04-21T21:04:07.923Z,2.63
2023-04-21T21:06:35.916Z,3.00
2023-04-21T21:09:06.105Z,2.10
2023-04-21T21:11:34.043Z,2.07
2023-04-21T21:14:02.296Z,2.50
2023-04-21T21:16:30.469Z,2.97
2023-04-21T21:18:58.250Z,4.27
2023-04-21T21:21:26.449Z,3.23
2023-04-21T21:23:54.372Z,5.13
2023-04-21T21:26:23.645Z,3.67
2023-04-21T21:28:51.433Z,2.93
2023-04-21T21:31:19.448Z,2.77
2023-04-21T21:33:47.217Z,2.57
2023-04-21T21:36:15.362Z,2.60
2023-04-21T21:38:43.274Z,2.47
2023-04-21T21:41:12.501Z,2.10
2023-04-21T21:43:41.653Z,2.10
2023-04-21T21:46:10.008Z,3.00
2023-04-21T21:48:38.039Z,2.50
2023-04-21T21:51:06.191Z,2.37
2023-04-21T21:53:34.076Z,3.13
2023-04-21T21:56:02.241Z,3.17
2023-04-21T21:58:30.403Z,4.13
2023-04-21T22:00:59.704Z,3.27
2023-04-21T22:03:28.228Z,4.40
2023-04-21T22:05:56.216Z,2.60
2023-04-21T22:08:23.992Z,2.97
2023-04-21T22:10:52.113Z,3.13
2023-04-21T22:13:20.197Z,2.90
2023-04-21T22:15:48.236Z,3.70
2023-04-21T22:18:18.685Z,3.00
2023-04-21T22:20:46.614Z,3.00
2023-04-21T22:23:14.394Z,2.33
2023-04-21T22:25:42.396Z,3.00
2023-04-21T22:28:10.568Z,2.90
2023-04-21T22:30:38.973Z,3.27
2023-04-21T22:33:07.223Z,2.20
2023-04-21T22:35:36.801Z,2.40
2023-04-21T22:38:04.657Z,3.50
2023-04-21T22:40:32.711Z,4.43
2023-04-21T22:43:00.601Z,2.30
2023-04-21T22:45:28.529Z,2.50
2023-04-21T22:47:56.873Z,3.13
2023-04-21T22:50:25.691Z,3.63
2023-04-21T22:52:54.837Z,2.63
2023-04-21T22:55:23.096Z,2.70
2023-04-21T22:57:51.089Z,2.00
2023-04-21T23:00:18.988Z,2.87
2023-04-21T23:02:46.841Z,2.47
2023-04-21T23:05:14.634Z,3.77
2023-04-21T23:07:42.423Z,3.13
2023-04-21T23:10:12.350Z,2.87
2023-04-21T23:12:40.239Z,3.03
2023-04-21T23:15:08.804Z,2.60
2023-04-21T23:17:36.578Z,2.83
2023-04-21T23:20:05.714Z,3.73
2023-04-21T23:22:33.571Z,3.77
2023-04-21T23:25:01.353Z,2.63
2023-04-21T23:27:30.598Z,3.67
2023-04-21T23:29:58.362Z,2.53
2023-04-21T23:32:26.316Z,3.20
2023-04-21T23:34:54.446Z,2.73
2023-04-21T23:37:22.231Z,2.87
2023-04-21T23:39:50.329Z,3.13
2023-04-21T23:42:18.109Z,2.57
2023-04-21T23:44:47.533Z,2.87
2023-04-21T23:47:15.335Z,2.40
2023-04-21T23:49:43.101Z,2.63
2023-04-21T23:52:10.922Z,2.47
2023-04-21T23:54:38.655Z,2.23
2023-04-21T23:57:06.483Z,3.27
2023-04-21T23:59:34.231Z,3.47
